sensor_id;sensor_type;location;lat;lon;timestamp;pressure;altitude;pressure_sealevel;temperature;humidity
11692;BME280;33659;42.672;23.354;2023-01-10T00:00:37;93591.28;;;5.08;77.96
11692;BME280;33659;42.672;23.354;2023-01-10T00:03:06;93579.44;;;5.07;77.56
11692;BME280;33659;42.672;23.354;2023-01-10T00:05:33;93563.03;;;5.03;77.49
11692;BME280;33659;42.672;23.354;2023-01-10T00:08:00;93602.88;;;5.02;77.90
11692;BME280;33659;42.672;23.354;2023-01-10T00:10:28;93541.59;;;4.94;78.35
11692;BME280;33659;42.672;23.354;2023-01-10T00:12:54;93550.44;;;4.93;78.08
11692;BME280;33659;42.672;23.354;2023-01-10T00:15:40;93587.72;;;4.92;78.65
11692;BME280;33659;42.672;23.354;2023-01-10T00:18:07;93574.44;;;5.02;78.30
11692;BME280;33659;42.672;23.354;2023-01-10T00:20:33;93558.91;;;5.02;77.90
11692;BME280;33659;42.672;23.354;2023-01-10T00:23:00;93582.34;;;5.05;78.22
11692;BME280;33659;42.672;23.354;2023-01-10T00:25:28;93577.31;;;5.09;77.75
11692;BME280;33659;42.672;23.354;2023-01-10T00:27:55;93566.50;;;5.07;78.03
11692;BME280;33659;42.672;23.354;2023-01-10T00:30:27;93572.75;;;5.06;77.52
11692;BME280;33659;42.672;23.354;2023-01-10T00:32:55;93614.78;;;5.03;77.85
11692;BME280;33659;42.672;23.354;2023-01-10T00:35:21;93541.38;;;4.78;78.71
11692;BME280;33659;42.672;23.354;2023-01-10T00:37:48;93565.25;;;4.75;79.44
11692;BME280;33659;42.672;23.354;2023-01-10T00:40:16;93566.09;;;4.58;79.69
11692;BME280;33659;42.672;23.354;2023-01-10T00:42:43;93569.13;;;4.51;80.04
11692;BME280;33659;42.672;23.354;2023-01-10T00:45:27;93493.44;;;4.42;80.39
11692;BME280;33659;42.672;23.354;2023-01-10T00:47:54;93534.03;;;4.42;81.25
11692;BME280;33659;42.672;23.354;2023-01-10T00:50:21;93516.06;;;4.54;80.81
11692;BME280;33659;42.672;23.354;2023-01-10T00:52:48;93549.94;;;4.61;80.64
11692;BME280;33659;42.672;23.354;2023-01-10T00:55:14;93555.69;;;4.67;79.84
11692;BME280;33659;42.672;23.354;2023-01-10T00:57:41;93539.59;;;4.61;80.37
11692;BME280;33659;42.672;23.354;2023-01-10T01:00:09;93526.84;;;4.56;80.43
11692;BME280;33659;42.672;23.354;2023-01-10T01:02:36;93544.16;;;4.64;80.63
11692;BME280;33659;42.672;23.354;2023-01-10T01:05:05;93500.47;;;4.71;79.68
11692;BME280;33659;42.672;23.354;2023-01-10T01:07:32;93549.91;;;4.70;80.03
11692;BME280;33659;42.672;23.354;2023-01-10T01:09:59;93522.81;;;4.76;80.03
11692;BME280;33659;42.672;23.354;2023-01-10T01:12:43;93517.03;;;4.79;80.19
11692;BME280;33659;42.672;23.354;2023-01-10T01:15:09;93523.38;;;4.90;79.76
11692;BME280;33659;42.672;23.354;2023-01-10T01:17:36;93533.88;;;4.85;79.62
11692;BME280;33659;42.672;23.354;2023-01-10T01:20:06;93500.25;;;4.85;79.44
11692;BME280;33659;42.672;23.354;2023-01-10T01:22:33;93498.25;;;4.91;79.52
11692;BME280;33659;42.672;23.354;2023-01-10T01:25:00;93535.09;;;4.87;79.08
11692;BME280;33659;42.672;23.354;2023-01-10T01:27:28;93506.81;;;4.82;79.55
11692;BME280;33659;42.672;23.354;2023-01-10T01:29:55;93532.38;;;4.75;79.85
11692;BME280;33659;42.672;23.354;2023-01-10T01:32:23;93511.84;;;4.79;80.00
11692;BME280;33659;42.672;23.354;2023-01-10T01:34:49;93584.38;;;4.82;79.66
11692;BME280;33659;42.672;23.354;2023-01-10T01:37:17;93523.88;;;4.75;79.80
11692;BME280;33659;42.672;23.354;2023-01-10T01:39:44;93533.94;;;4.68;80.41
11692;BME280;33659;42.672;23.354;2023-01-10T01:42:19;93477.50;;;4.70;80.94
11692;BME280;33659;42.672;23.354;2023-01-10T01:45:11;93531.63;;;4.75;80.35
11692;BME280;33659;42.672;23.354;2023-01-10T01:47:53;93527.19;;;4.84;79.92
11692;BME280;33659;42.672;23.354;2023-01-10T01:50:25;93542.66;;;4.93;80.48
11692;BME280;33659;42.672;23.354;2023-01-10T01:52:57;93499.53;;;5.05;79.27
11692;BME280;33659;42.672;23.354;2023-01-10T01:55:26;93507.25;;;5.14;78.99
11692;BME280;33659;42.672;23.354;2023-01-10T01:57:59;93504.47;;;5.19;78.88
11692;BME280;33659;42.672;23.354;2023-01-10T02:00:28;93490.53;;;5.32;78.19
11692;BME280;33659;42.672;23.354;2023-01-10T02:02:57;93490.63;;;5.44;77.90
11692;BME280;33659;42.672;23.354;2023-01-10T02:05:25;93494.53;;;5.51;77.29
11692;BME280;33659;42.672;23.354;2023-01-10T02:07:56;93494.16;;;5.61;77.12
11692;BME280;33659;42.672;23.354;2023-01-10T02:10:31;93481.47;;;5.68;76.54
11692;BME280;33659;42.672;23.354;2023-01-10T02:13:02;93467.00;;;5.67;76.58
11692;BME280;33659;42.672;23.354;2023-01-10T02:15:30;93458.34;;;5.63;76.31
11692;BME280;33659;42.672;23.354;2023-01-10T02:17:58;93462.28;;;5.48;76.96
11692;BME280;33659;42.672;23.354;2023-01-10T02:20:29;93454.38;;;5.44;76.62
11692;BME280;33659;42.672;23.354;2023-01-10T02:32:39;93451.84;;;5.57;76.97
11692;BME280;33659;42.672;23.354;2023-01-10T02:35:24;93444.75;;;5.66;76.70
11692;BME280;33659;42.672;23.354;2023-01-10T02:37:59;93427.97;;;5.51;76.56
11692;BME280;33659;42.672;23.354;2023-01-10T02:40:38;93448.53;;;5.68;76.43
11692;BME280;33659;42.672;23.354;2023-01-10T02:43:08;93457.94;;;5.73;75.88
11692;BME280;33659;42.672;23.354;2023-01-10T02:45:37;93452.47;;;5.75;75.95
11692;BME280;33659;42.672;23.354;2023-01-10T02:48:07;93451.13;;;5.68;76.35
11692;BME280;33659;42.672;23.354;2023-01-10T02:50:48;93453.16;;;5.63;76.61
11692;BME280;33659;42.672;23.354;2023-01-10T02:53:20;93454.81;;;5.47;76.82
11692;BME280;33659;42.672;23.354;2023-01-10T02:56:03;93427.34;;;5.33;76.74
11692;BME280;33659;42.672;23.354;2023-01-10T02:58:43;93451.09;;;5.56;76.46
11692;BME280;33659;42.672;23.354;2023-01-10T03:01:22;93458.41;;;5.54;76.41
11692;BME280;33659;42.672;23.354;2023-01-10T03:04:03;93476.09;;;5.52;76.49
11692;BME280;33659;42.672;23.354;2023-01-10T03:06:39;93451.78;;;5.44;76.69
11692;BME280;33659;42.672;23.354;2023-01-10T03:09:13;93465.22;;;5.38;77.10
11692;BME280;33659;42.672;23.354;2023-01-10T03:11:45;93477.84;;;5.39;76.66
11692;BME280;33659;42.672;23.354;2023-01-10T03:14:18;93464.59;;;5.20;77.30
11692;BME280;33659;42.672;23.354;2023-01-10T03:16:53;93479.44;;;5.11;77.94
11692;BME280;33659;42.672;23.354;2023-01-10T03:19:23;93474.44;;;5.06;78.23
11692;BME280;33659;42.672;23.354;2023-01-10T03:21:55;93469.69;;;5.08;78.32
11692;BME280;33659;42.672;23.354;2023-01-10T03:24:28;93457.41;;;5.05;78.70
11692;BME280;33659;42.672;23.354;2023-01-10T03:26:57;93471.66;;;5.11;78.58
11692;BME280;33659;42.672;23.354;2023-01-10T03:29:31;93483.78;;;5.19;78.06
11692;BME280;33659;42.672;23.354;2023-01-10T03:32:01;93482.84;;;5.24;78.05
11692;BME280;33659;42.672;23.354;2023-01-10T03:34:32;93487.09;;;5.28;78.02
11692;BME280;33659;42.672;23.354;2023-01-10T03:37:04;93475.25;;;5.39;77.48
11692;BME280;33659;42.672;23.354;2023-01-10T03:39:42;93473.69;;;5.47;77.35
11692;BME280;33659;42.672;23.354;2023-01-10T03:42:15;93477.72;;;5.57;76.41
11692;BME280;33659;42.672;23.354;2023-01-10T03:44:52;93480.25;;;5.65;76.47
11692;BME280;33659;42.672;23.354;2023-01-10T03:47:23;93480.63;;;5.76;75.82
11692;BME280;33659;42.672;23.354;2023-01-10T03:49:56;93475.06;;;5.86;75.19
11692;BME280;33659;42.672;23.354;2023-01-10T03:52:25;93465.56;;;5.90;75.40
11692;BME280;33659;42.672;23.354;2023-01-10T03:54:52;93461.41;;;5.98;74.49
11692;BME280;33659;42.672;23.354;2023-01-10T03:57:20;93462.38;;;5.93;74.62
11692;BME280;33659;42.672;23.354;2023-01-10T03:59:50;93443.09;;;5.82;75.19
11692;BME280;33659;42.672;23.354;2023-01-10T04:02:17;93433.47;;;5.83;75.29
11692;BME280;33659;42.672;23.354;2023-01-10T04:04:44;93427.31;;;5.75;75.60
11692;BME280;33659;42.672;23.354;2023-01-10T04:07:12;93406.50;;;5.84;75.22
11692;BME280;33659;42.672;23.354;2023-01-10T04:09:39;93385.44;;;5.85;74.91
11692;BME280;33659;42.672;23.354;2023-01-10T04:12:05;93372.78;;;5.71;75.58
11692;BME280;33659;42.672;23.354;2023-01-10T04:14:32;93389.09;;;5.72;75.22
11692;BME280;33659;42.672;23.354;2023-01-10T04:16:59;93390.69;;;5.64;75.38
11692;BME280;33659;42.672;23.354;2023-01-10T04:19:25;93393.94;;;5.61;75.42
11692;BME280;33659;42.672;23.354;2023-01-10T04:21:52;93391.13;;;5.33;76.14
11692;BME280;33659;42.672;23.354;2023-01-10T04:24:20;93391.50;;;5.02;78.06
11692;BME280;33659;42.672;23.354;2023-01-10T04:26:47;93416.66;;;4.72;79.07
11692;BME280;33659;42.672;23.354;2023-01-10T04:29:14;93451.88;;;4.56;80.02
11692;BME280;33659;42.672;23.354;2023-01-10T04:31:41;93457.84;;;4.48;80.59
11692;BME280;33659;42.672;23.354;2023-01-10T04:34:07;93463.16;;;4.51;80.97
11692;BME280;33659;42.672;23.354;2023-01-10T04:36:34;93467.38;;;4.56;81.35
11692;BME280;33659;42.672;23.354;2023-01-10T04:39:02;93481.38;;;4.55;81.48
11692;BME280;33659;42.672;23.354;2023-01-10T04:41:30;93464.88;;;4.68;80.98
11692;BME280;33659;42.672;23.354;2023-01-10T04:43:56;93489.78;;;4.81;80.95
11692;BME280;33659;42.672;23.354;2023-01-10T04:46:23;93478.59;;;4.98;79.78
11692;BME280;33659;42.672;23.354;2023-01-10T04:48:50;93456.56;;;5.13;79.06
11692;BME280;33659;42.672;23.354;2023-01-10T04:51:16;93475.19;;;5.27;78.75
11692;BME280;33659;42.672;23.354;2023-01-10T04:53:43;93438.41;;;5.42;77.79
11692;BME280;33659;42.672;23.354;2023-01-10T04:56:17;93447.00;;;5.55;77.30
11692;BME280;33659;42.672;23.354;2023-01-10T04:58:45;93433.91;;;5.52;76.55
11692;BME280;33659;42.672;23.354;2023-01-10T05:01:16;93461.31;;;5.74;76.32
11692;BME280;33659;42.672;23.354;2023-01-10T05:03:46;93449.53;;;5.76;76.07
11692;BME280;33659;42.672;23.354;2023-01-10T05:06:12;93443.34;;;5.35;76.67
11692;BME280;33659;42.672;23.354;2023-01-10T05:08:39;93433.44;;;5.16;77.56
11692;BME280;33659;42.672;23.354;2023-01-10T05:11:06;93423.44;;;4.85;78.60
11692;BME280;33659;42.672;23.354;2023-01-10T05:13:32;93409.63;;;4.52;79.84
11692;BME280;33659;42.672;23.354;2023-01-10T05:16:00;93410.69;;;4.51;80.49
11692;BME280;33659;42.672;23.354;2023-01-10T05:18:28;93419.69;;;4.45;80.94
11692;BME280;33659;42.672;23.354;2023-01-10T05:20:58;93413.41;;;4.54;80.85
11692;BME280;33659;42.672;23.354;2023-01-10T05:23:25;93413.34;;;4.63;80.73
11692;BME280;33659;42.672;23.354;2023-01-10T05:25:52;93405.19;;;4.82;80.40
11692;BME280;33659;42.672;23.354;2023-01-10T05:28:18;93400.66;;;5.00;79.55
11692;BME280;33659;42.672;23.354;2023-01-10T05:30:45;93403.13;;;5.17;78.81
11692;BME280;33659;42.672;23.354;2023-01-10T05:33:13;93412.22;;;5.23;78.68
11692;BME280;33659;42.672;23.354;2023-01-10T05:35:40;93424.75;;;5.33;77.80
11692;BME280;33659;42.672;23.354;2023-01-10T05:38:06;93426.31;;;5.47;77.79
11692;BME280;33659;42.672;23.354;2023-01-10T05:40:33;93428.88;;;5.55;77.08
11692;BME280;33659;42.672;23.354;2023-01-10T05:42:59;93427.47;;;5.58;76.40
11692;BME280;33659;42.672;23.354;2023-01-10T05:45:26;93438.84;;;5.44;76.48
11692;BME280;33659;42.672;23.354;2023-01-10T05:47:53;93440.53;;;5.40;76.77
11692;BME280;33659;42.672;23.354;2023-01-10T05:50:21;93443.84;;;5.29;77.42
11692;BME280;33659;42.672;23.354;2023-01-10T05:52:47;93436.63;;;5.13;77.81
11692;BME280;33659;42.672;23.354;2023-01-10T05:55:14;93431.78;;;5.12;78.35
11692;BME280;33659;42.672;23.354;2023-01-10T05:57:41;93431.69;;;5.21;78.66
11692;BME280;33659;42.672;23.354;2023-01-10T06:00:09;93425.97;;;5.36;77.75
11692;BME280;33659;42.672;23.354;2023-01-10T06:02:36;93415.97;;;5.47;77.34
11692;BME280;33659;42.672;23.354;2023-01-10T06:05:03;93425.75;;;5.62;76.95
11692;BME280;33659;42.672;23.354;2023-01-10T06:07:31;93435.94;;;5.67;76.48
11692;BME280;33659;42.672;23.354;2023-01-10T06:09:58;93438.00;;;5.74;75.92
11692;BME280;33659;42.672;23.354;2023-01-10T06:12:24;93447.47;;;5.69;75.75
11692;BME280;33659;42.672;23.354;2023-01-10T06:14:51;93449.06;;;5.62;76.09
11692;BME280;33659;42.672;23.354;2023-01-10T06:17:17;93455.38;;;5.52;76.64
11692;BME280;33659;42.672;23.354;2023-01-10T06:19:44;93436.94;;;5.54;76.91
11692;BME280;33659;42.672;23.354;2023-01-10T06:22:11;93444.63;;;5.62;77.03
11692;BME280;33659;42.672;23.354;2023-01-10T06:24:39;93433.25;;;5.76;76.76
11692;BME280;33659;42.672;23.354;2023-01-10T06:27:06;93433.13;;;5.93;76.04
11692;BME280;33659;42.672;23.354;2023-01-10T06:29:33;93431.19;;;6.02;75.53
11692;BME280;33659;42.672;23.354;2023-01-10T06:32:00;93440.59;;;6.07;75.20
11692;BME280;33659;42.672;23.354;2023-01-10T06:34:26;93431.53;;;6.13;75.03
11692;BME280;33659;42.672;23.354;2023-01-10T06:36:53;93427.44;;;6.24;74.73
11692;BME280;33659;42.672;23.354;2023-01-10T06:39:20;93433.50;;;6.28;74.38
11692;BME280;33659;42.672;23.354;2023-01-10T06:41:48;93441.16;;;6.37;74.29
11692;BME280;33659;42.672;23.354;2023-01-10T06:44:14;93428.75;;;6.42;73.92
11692;BME280;33659;42.672;23.354;2023-01-10T06:46:41;93432.22;;;6.46;73.37
11692;BME280;33659;42.672;23.354;2023-01-10T06:49:08;93444.97;;;6.39;73.81
11692;BME280;33659;42.672;23.354;2023-01-10T06:51:34;93438.91;;;6.35;74.28
11692;BME280;33659;42.672;23.354;2023-01-10T06:54:01;93438.91;;;6.35;74.58
11692;BME280;33659;42.672;23.354;2023-01-10T06:56:27;93436.72;;;6.37;75.31
11692;BME280;33659;42.672;23.354;2023-01-10T06:58:55;93438.91;;;6.35;75.74
11692;BME280;33659;42.672;23.354;2023-01-10T07:01:22;93431.78;;;6.32;76.50
11692;BME280;33659;42.672;23.354;2023-01-10T07:03:49;93428.31;;;6.40;76.80
11692;BME280;33659;42.672;23.354;2023-01-10T07:06:15;93416.34;;;6.48;76.70
11692;BME280;33659;42.672;23.354;2023-01-10T07:08:43;93416.88;;;6.54;76.96
11692;BME280;33659;42.672;23.354;2023-01-10T07:11:11;93416.00;;;6.62;76.95
11692;BME280;33659;42.672;23.354;2023-01-10T07:13:38;93414.28;;;6.66;77.22
11692;BME280;33659;42.672;23.354;2023-01-10T07:16:09;93422.94;;;6.70;76.91
11692;BME280;33659;42.672;23.354;2023-01-10T07:18:37;93407.03;;;6.59;77.32
11692;BME280;33659;42.672;23.354;2023-01-10T07:21:04;93406.38;;;6.62;77.55
11692;BME280;33659;42.672;23.354;2023-01-10T07:23:31;93409.53;;;6.68;77.58
11692;BME280;33659;42.672;23.354;2023-01-10T07:25:58;93405.19;;;6.72;77.64
11692;BME280;33659;42.672;23.354;2023-01-10T07:28:27;93405.19;;;6.72;77.64
11692;BME280;33659;42.672;23.354;2023-01-10T07:30:57;93400.66;;;6.57;78.30
11692;BME280;33659;42.672;23.354;2023-01-10T07:33:25;93398.50;;;6.46;78.96
11692;BME280;33659;42.672;23.354;2023-01-10T07:35:52;93397.22;;;6.40;79.50
11692;BME280;33659;42.672;23.354;2023-01-10T07:38:18;93390.94;;;6.41;79.58
11692;BME280;33659;42.672;23.354;2023-01-10T07:40:45;93395.16;;;6.46;79.61
11692;BME280;33659;42.672;23.354;2023-01-10T07:43:12;93399.81;;;6.53;80.00
11692;BME280;33659;42.672;23.354;2023-01-10T07:45:38;93397.22;;;6.53;79.99
11692;BME280;33659;42.672;23.354;2023-01-10T07:48:05;93379.41;;;6.51;80.01
11692;BME280;33659;42.672;23.354;2023-01-10T07:50:34;93383.16;;;6.54;80.09
11692;BME280;33659;42.672;23.354;2023-01-10T07:53:03;93380.78;;;6.48;80.44
11692;BME280;33659;42.672;23.354;2023-01-10T07:55:30;93381.88;;;6.47;80.80
11692;BME280;33659;42.672;23.354;2023-01-10T07:57:59;93386.09;;;6.52;81.35
11692;BME280;33659;42.672;23.354;2023-01-10T08:00:25;93384.03;;;6.58;81.13
11692;BME280;33659;42.672;23.354;2023-01-10T08:02:52;93387.06;;;6.60;81.12
11692;BME280;33659;42.672;23.354;2023-01-10T08:05:20;93392.66;;;6.62;81.17
11692;BME280;33659;42.672;23.354;2023-01-10T08:07:48;93390.19;;;6.53;81.50
11692;BME280;33659;42.672;23.354;2023-01-10T08:10:15;93391.38;;;6.56;81.48
11692;BME280;33659;42.672;23.354;2023-01-10T08:12:42;93383.59;;;6.56;81.31
11692;BME280;33659;42.672;23.354;2023-01-10T08:15:09;93390.28;;;6.57;81.68
11692;BME280;33659;42.672;23.354;2023-01-10T08:17:36;93387.38;;;6.58;81.41
11692;BME280;33659;42.672;23.354;2023-01-10T08:20:03;93386.84;;;6.65;81.37
11692;BME280;33659;42.672;23.354;2023-01-10T08:22:30;93386.38;;;6.75;81.34
11692;BME280;33659;42.672;23.354;2023-01-10T08:24:58;93378.78;;;6.82;81.17
11692;BME280;33659;42.672;23.354;2023-01-10T08:27:24;93378.16;;;6.85;81.24
11692;BME280;33659;42.672;23.354;2023-01-10T08:29:51;93362.78;;;6.92;80.92
11692;BME280;33659;42.672;23.354;2023-01-10T08:32:18;93359.53;;;6.95;80.38
11692;BME280;33659;42.672;23.354;2023-01-10T08:34:44;93358.47;;;6.96;80.52
11692;BME280;33659;42.672;23.354;2023-01-10T08:37:12;93359.66;;;6.87;80.81
11692;BME280;33659;42.672;23.354;2023-01-10T08:39:39;93364.84;;;6.87;80.83
11692;BME280;33659;42.672;23.354;2023-01-10T08:42:07;93349.63;;;6.85;80.95
11692;BME280;33659;42.672;23.354;2023-01-10T08:44:34;93343.53;;;6.93;80.67
11692;BME280;33659;42.672;23.354;2023-01-10T08:47:01;93342.03;;;6.92;80.72
11692;BME280;33659;42.672;23.354;2023-01-10T08:49:27;93335.34;;;6.91;80.87
11692;BME280;33659;42.672;23.354;2023-01-10T08:51:54;93335.66;;;6.90;81.39
11692;BME280;33659;42.672;23.354;2023-01-10T08:54:21;93337.59;;;6.93;81.07
11692;BME280;33659;42.672;23.354;2023-01-10T08:56:47;93334.81;;;6.86;81.31
11692;BME280;33659;42.672;23.354;2023-01-10T08:59:16;93330.03;;;6.88;81.38
11692;BME280;33659;42.672;23.354;2023-01-10T09:01:42;93322.25;;;6.88;81.46
11692;BME280;33659;42.672;23.354;2023-01-10T09:04:09;93322.59;;;6.86;81.73
11692;BME280;33659;42.672;23.354;2023-01-10T09:06:36;93327.31;;;6.96;81.35
11692;BME280;33659;42.672;23.354;2023-01-10T09:09:03;93317.88;;;7.04;81.22
11692;BME280;33659;42.672;23.354;2023-01-10T09:11:30;93311.03;;;7.12;81.10
11692;BME280;33659;42.672;23.354;2023-01-10T09:13:57;93313.75;;;7.15;80.88
11692;BME280;33659;42.672;23.354;2023-01-10T09:16:25;93314.38;;;7.12;80.59
11692;BME280;33659;42.672;23.354;2023-01-10T09:18:51;93323.25;;;7.11;80.96
11692;BME280;33659;42.672;23.354;2023-01-10T09:21:20;93328.34;;;7.07;81.30
11692;BME280;33659;42.672;23.354;2023-01-10T09:23:46;93308.25;;;7.04;81.38
11692;BME280;33659;42.672;23.354;2023-01-10T09:26:13;93313.53;;;7.08;81.71
11692;BME280;33659;42.672;23.354;2023-01-10T09:28:40;93316.22;;;7.12;81.47
11692;BME280;33659;42.672;23.354;2023-01-10T09:31:06;93313.06;;;7.18;81.58
11692;BME280;33659;42.672;23.354;2023-01-10T09:33:34;93310.25;;;7.23;81.28
11692;BME280;33659;42.672;23.354;2023-01-10T09:36:01;93303.78;;;7.33;81.02
11692;BME280;33659;42.672;23.354;2023-01-10T09:38:28;93301.72;;;7.39;80.63
11692;BME280;33659;42.672;23.354;2023-01-10T09:41:13;93298.13;;;7.43;80.67
11692;BME280;33659;42.672;23.354;2023-01-10T09:43:50;93286.75;;;7.48;79.87
11692;BME280;33659;42.672;23.354;2023-01-10T09:46:26;93279.72;;;7.48;80.54
11692;BME280;33659;42.672;23.354;2023-01-10T09:49:01;93272.34;;;7.50;79.95
11692;BME280;33659;42.672;23.354;2023-01-10T09:51:35;93277.88;;;7.49;80.48
11692;BME280;33659;42.672;23.354;2023-01-10T09:54:05;93270.06;;;7.49;80.31
11692;BME280;33659;42.672;23.354;2023-01-10T09:56:32;93273.94;;;7.55;80.18
11692;BME280;33659;42.672;23.354;2023-01-10T09:58:59;93266.66;;;7.60;79.68
11692;BME280;33659;42.672;23.354;2023-01-10T10:01:31;93259.19;;;7.59;79.92
11692;BME280;33659;42.672;23.354;2023-01-10T10:04:10;93262.13;;;7.57;80.22
11692;BME280;33659;42.672;23.354;2023-01-10T10:06:40;93268.97;;;7.50;80.32
11692;BME280;33659;42.672;23.354;2023-01-10T10:09:09;93259.41;;;7.38;80.87
11692;BME280;33659;42.672;23.354;2023-01-10T10:12:06;93254.81;;;7.31;80.50
11692;BME280;33659;42.672;23.354;2023-01-10T10:14:51;93253.63;;;7.29;80.64
11692;BME280;33659;42.672;23.354;2023-01-10T10:17:30;93266.22;;;7.15;80.66
11692;BME280;33659;42.672;23.354;2023-01-10T10:20:15;93264.13;;;7.04;80.89
11692;BME280;33659;42.672;23.354;2023-01-10T10:22:49;93266.31;;;7.02;80.86
11692;BME280;33659;42.672;23.354;2023-01-10T10:25:34;93257.25;;;6.96;81.00
11692;BME280;33659;42.672;23.354;2023-01-10T10:28:17;93251.88;;;6.89;81.19
11692;BME280;33659;42.672;23.354;2023-01-10T10:30:52;93251.88;;;6.89;81.21
11692;BME280;33659;42.672;23.354;2023-01-10T10:33:39;93243.06;;;6.78;81.92
11692;BME280;33659;42.672;23.354;2023-01-10T10:36:13;93246.06;;;6.80;81.97
11692;BME280;33659;42.672;23.354;2023-01-10T10:38:43;93237.28;;;6.85;81.90
11692;BME280;33659;42.672;23.354;2023-01-10T10:41:15;93230.25;;;6.85;81.90
11692;BME280;33659;42.672;23.354;2023-01-10T10:43:45;93232.53;;;6.87;81.99
11692;BME280;33659;42.672;23.354;2023-01-10T10:46:14;93235.78;;;6.84;81.86
11692;BME280;33659;42.672;23.354;2023-01-10T10:48:48;93230.69;;;6.87;82.21
11692;BME280;33659;42.672;23.354;2023-01-10T10:51:23;93220.13;;;6.80;82.20
11692;BME280;33659;42.672;23.354;2023-01-10T10:53:52;93209.56;;;6.73;82.35
11692;BME280;33659;42.672;23.354;2023-01-10T10:56:22;93205.91;;;6.62;82.57
11692;BME280;33659;42.672;23.354;2023-01-10T10:58:51;93223.94;;;6.70;83.00
11692;BME280;33659;42.672;23.354;2023-01-10T11:01:20;93225.78;;;6.70;83.13
11692;BME280;33659;42.672;23.354;2023-01-10T11:03:51;93229.63;;;6.76;83.23
11692;BME280;33659;42.672;23.354;2023-01-10T11:06:22;93231.25;;;6.81;82.67
11692;BME280;33659;42.672;23.354;2023-01-10T11:08:54;93199.19;;;6.73;83.45
11692;BME280;33659;42.672;23.354;2023-01-10T11:11:26;93203.56;;;6.85;83.54
11692;BME280;33659;42.672;23.354;2023-01-10T11:13:55;93193.59;;;6.87;83.45
11692;BME280;33659;42.672;23.354;2023-01-10T11:16:25;93203.03;;;6.79;83.84
11692;BME280;33659;42.672;23.354;2023-01-10T11:19:19;93203.50;;;6.69;84.48
11692;BME280;33659;42.672;23.354;2023-01-10T11:21:50;93202.69;;;6.65;84.74
11692;BME280;33659;42.672;23.354;2023-01-10T11:24:21;93198.25;;;6.65;85.01
11692;BME280;33659;42.672;23.354;2023-01-10T11:26:48;93195.53;;;6.62;84.73
11692;BME280;33659;42.672;23.354;2023-01-10T11:29:19;93195.78;;;6.57;84.55
11692;BME280;33659;42.672;23.354;2023-01-10T11:31:48;93186.41;;;6.52;84.86
11692;BME280;33659;42.672;23.354;2023-01-10T11:34:21;93194.72;;;6.58;85.39
11692;BME280;33659;42.672;23.354;2023-01-10T11:36:55;93162.25;;;6.36;85.85
11692;BME280;33659;42.672;23.354;2023-01-10T11:39:23;93192.75;;;6.55;86.13
11692;BME280;33659;42.672;23.354;2023-01-10T11:41:50;93173.19;;;6.29;86.44
11692;BME280;33659;42.672;23.354;2023-01-10T11:44:22;93197.13;;;6.50;86.29
11692;BME280;33659;42.672;23.354;2023-01-10T11:46:53;93194.41;;;6.47;86.62
11692;BME280;33659;42.672;23.354;2023-01-10T11:49:27;93198.63;;;6.51;86.65
11692;BME280;33659;42.672;23.354;2023-01-10T11:51:59;93192.75;;;6.55;86.77
11692;BME280;33659;42.672;23.354;2023-01-10T11:54:29;93194.44;;;6.63;86.53
11692;BME280;33659;42.672;23.354;2023-01-10T11:57:00;93198.50;;;6.76;86.22
11692;BME280;33659;42.672;23.354;2023-01-10T11:59:28;93189.31;;;6.78;85.73
11692;BME280;33659;42.672;23.354;2023-01-10T12:02:00;93174.84;;;6.77;85.33
11692;BME280;33659;42.672;23.354;2023-01-10T12:04:31;93175.84;;;6.89;85.20
11692;BME280;33659;42.672;23.354;2023-01-10T12:07:02;93183.97;;;6.87;85.43
11692;BME280;33659;42.672;23.354;2023-01-10T12:09:38;93188.75;;;6.85;84.92
11692;BME280;33659;42.672;23.354;2023-01-10T12:12:13;93152.31;;;6.66;85.01
11692;BME280;33659;42.672;23.354;2023-01-10T12:14:41;93176.75;;;6.81;85.39
11692;BME280;33659;42.672;23.354;2023-01-10T12:17:10;93187.91;;;6.81;85.48
11692;BME280;33659;42.672;23.354;2023-01-10T12:19:38;93186.91;;;6.86;85.68
11692;BME280;33659;42.672;23.354;2023-01-10T12:22:10;93190.34;;;6.90;85.69
11692;BME280;33659;42.672;23.354;2023-01-10T12:24:39;93190.66;;;6.88;85.66
11692;BME280;33659;42.672;23.354;2023-01-10T12:27:11;93189.59;;;6.89;85.59
11692;BME280;33659;42.672;23.354;2023-01-10T12:29:42;93195.34;;;6.83;85.77
11692;BME280;33659;42.672;23.354;2023-01-10T12:32:16;93201.72;;;6.85;85.94
11692;BME280;33659;42.672;23.354;2023-01-10T12:34:49;93203.22;;;6.86;86.24
11692;BME280;33659;42.672;23.354;2023-01-10T12:37:26;93192.63;;;6.91;86.10
11692;BME280;33659;42.672;23.354;2023-01-10T12:40:02;93191.63;;;6.96;85.90
11692;BME280;33659;42.672;23.354;2023-01-10T12:42:35;93184.16;;;6.94;85.46
11692;BME280;33659;42.672;23.354;2023-01-10T12:45:28;93175.03;;;7.00;85.60
11692;BME280;33659;42.672;23.354;2023-01-10T12:48:01;93170.94;;;6.99;85.63
11692;BME280;33659;42.672;23.354;2023-01-10T12:50:30;93171.69;;;7.00;85.90
11692;BME280;33659;42.672;23.354;2023-01-10T12:53:04;93184.78;;;7.03;85.84
11692;BME280;33659;42.672;23.354;2023-01-10T12:55:35;93193.38;;;7.07;85.64
11692;BME280;33659;42.672;23.354;2023-01-10T12:58:05;93189.28;;;7.06;85.36
11692;BME280;33659;42.672;23.354;2023-01-10T13:00:38;93189.78;;;7.12;85.41
11692;BME280;33659;42.672;23.354;2023-01-10T13:03:11;93195.91;;;7.20;84.85
11692;BME280;33659;42.672;23.354;2023-01-10T13:05:39;93188.94;;;7.08;84.27
11692;BME280;33659;42.672;23.354;2023-01-10T13:08:11;93202.03;;;7.12;84.53
11692;BME280;33659;42.672;23.354;2023-01-10T13:10:40;93207.72;;;7.17;84.35
11692;BME280;33659;42.672;23.354;2023-01-10T13:13:13;93196.59;;;7.17;84.45
11692;BME280;33659;42.672;23.354;2023-01-10T13:15:46;93193.41;;;7.23;84.31
11692;BME280;33659;42.672;23.354;2023-01-10T13:18:17;93193.47;;;7.27;84.31
11692;BME280;33659;42.672;23.354;2023-01-10T13:20:45;93204.31;;;7.29;84.26
11692;BME280;33659;42.672;23.354;2023-01-10T13:23:29;93207.56;;;7.26;84.12